createdAt,value
2023-02-27T00:01:08.936Z,3.37
2023-02-27T00:03:36.999Z,2.70
2023-02-27T00:06:05.308Z,2.27
2023-02-27T00:08:34.850Z,2.00
2023-02-27T00:11:03.050Z,2.03
2023-02-27T00:13:31.134Z,7.17
2023-02-27T00:15:59.188Z,2.50
2023-02-27T00:18:27.249Z,1.93
2023-02-27T00:20:56.029Z,2.00
2023-02-27T00:23:24.105Z,8.30
2023-02-27T00:25:55.050Z,2.40
2023-02-27T00:28:23.456Z,2.67
2023-02-27T00:30:51.438Z,6.20
2023-02-27T00:33:19.772Z,2.20
2023-02-27T00:35:56.706Z,1.47
2023-02-27T00:38:24.826Z,1.63
2023-02-27T00:40:54.532Z,1.20
2023-02-27T00:43:22.773Z,1.70
2023-02-27T00:45:50.780Z,1.60
2023-02-27T00:48:18.818Z,2.67
2023-02-27T00:50:47.302Z,2.30
2023-02-27T00:53:15.355Z,1.80
2023-02-27T00:55:43.350Z,1.20
2023-02-27T00:58:13.130Z,1.17
2023-02-27T01:00:41.242Z,1.30
2023-02-27T01:03:09.241Z,1.60
2023-02-27T01:05:37.398Z,1.10
2023-02-27T01:08:06.165Z,1.43
2023-02-27T01:10:34.474Z,1.20
2023-02-27T01:13:02.901Z,1.30
2023-02-27T01:15:32.415Z,1.33
2023-02-27T01:18:00.441Z,1.67
2023-02-27T01:20:31.280Z,1.10
2023-02-27T01:22:59.449Z,2.00
2023-02-27T01:25:27.365Z,1.70
2023-02-27T01:27:55.372Z,1.40
2023-02-27T01:30:24.017Z,1.00
2023-02-27T01:32:54.380Z,0.93
2023-02-27T01:35:22.356Z,1.40
2023-02-27T01:37:50.328Z,1.20
2023-02-27T01:40:18.577Z,1.23
2023-02-27T01:42:47.444Z,1.10
2023-02-27T01:45:28.150Z,0.93
2023-02-27T01:48:03.937Z,0.90
2023-02-27T01:50:32.850Z,1.00
2023-02-27T01:53:03.138Z,0.97
2023-02-27T01:55:34.562Z,0.97
2023-02-27T01:58:02.695Z,1.10
2023-02-27T02:00:30.741Z,1.00
2023-02-27T02:03:06.845Z,0.97
2023-02-27T02:05:35.345Z,1.00
2023-02-27T02:08:05.024Z,0.83
2023-02-27T02:10:34.326Z,0.83
2023-02-27T02:13:02.778Z,0.97
2023-02-27T02:15:35.819Z,0.90
2023-02-27T02:18:19.360Z,1.17
2023-02-27T02:21:15.003Z,1.10
2023-02-27T02:24:22.608Z,1.40
2023-02-27T02:27:02.198Z,1.53
2023-02-27T02:30:09.820Z,1.13
2023-02-27T02:33:11.315Z,1.00
2023-02-27T02:36:33.704Z,1.20
2023-02-27T02:39:18.424Z,1.00
2023-02-27T02:42:02.831Z,1.40
2023-02-27T02:44:40.234Z,1.40
2023-02-27T02:47:18.143Z,1.37
2023-02-27T02:49:56.116Z,1.00
2023-02-27T02:52:31.477Z,1.70
2023-02-27T02:55:08.463Z,1.50
2023-02-27T02:57:42.272Z,1.40
2023-02-27T03:00:16.596Z,1.60
2023-02-27T03:02:48.343Z,1.30
2023-02-27T03:05:23.179Z,1.77
2023-02-27T03:07:58.612Z,1.83
2023-02-27T03:10:35.133Z,1.40
2023-02-27T03:13:06.756Z,1.00
2023-02-27T03:15:39.368Z,1.00
2023-02-27T03:18:17.471Z,1.30
2023-02-27T03:20:50.028Z,1.70
2023-02-27T03:23:23.288Z,1.43
2023-02-27T03:25:57.198Z,1.33
2023-02-27T03:28:30.391Z,1.27
2023-02-27T03:31:08.288Z,1.23
2023-02-27T03:33:42.286Z,1.33
2023-02-27T03:36:16.271Z,1.50
2023-02-27T03:38:49.577Z,1.20
2023-02-27T03:41:29.419Z,1.73
2023-02-27T03:44:05.678Z,1.20
2023-02-27T03:46:34.485Z,1.30
2023-02-27T03:49:02.662Z,1.30
2023-02-27T03:51:31.747Z,1.47
2023-02-27T03:54:06.106Z,1.40
2023-02-27T03:56:40.305Z,1.73
2023-02-27T03:59:08.973Z,1.60
2023-02-27T04:01:37.171Z,1.30
2023-02-27T04:04:11.196Z,1.50
2023-02-27T04:07:00.521Z,0.93
2023-02-27T04:09:39.391Z,1.30
2023-02-27T04:12:24.929Z,1.40
2023-02-27T04:15:04.063Z,1.20
2023-02-27T04:17:34.482Z,1.40
2023-02-27T04:20:22.413Z,1.50
2023-02-27T04:22:54.976Z,1.30
2023-02-27T04:25:41.521Z,1.40
2023-02-27T04:28:18.104Z,1.20
2023-02-27T04:30:56.089Z,1.40
2023-02-27T04:33:31.666Z,1.90
2023-02-27T04:36:06.374Z,2.10
2023-02-27T04:38:41.119Z,1.53
2023-02-27T04:41:15.165Z,2.20
2023-02-27T04:43:46.833Z,1.93
2023-02-27T04:46:17.776Z,1.90
2023-02-27T04:48:53.354Z,1.63
2023-02-27T04:51:26.494Z,2.00
2023-02-27T04:53:59.624Z,1.87
2023-02-27T04:56:32.576Z,1.70
2023-02-27T04:59:06.622Z,1.97
2023-02-27T05:01:39.787Z,1.50
2023-02-27T05:04:10.854Z,1.60
2023-02-27T05:06:43.260Z,1.70
2023-02-27T05:09:19.947Z,1.47
2023-02-27T05:11:54.822Z,1.67
2023-02-27T05:14:31.678Z,2.00
2023-02-27T05:17:06.606Z,1.67
2023-02-27T05:19:36.465Z,1.90
2023-02-27T05:22:14.805Z,1.80
2023-02-27T05:24:53.827Z,1.90
2023-02-27T05:27:31.276Z,1.70
2023-02-27T05:30:06.482Z,1.87
2023-02-27T05:32:43.196Z,2.17
2023-02-27T05:35:18.400Z,2.20
2023-02-27T05:37:50.919Z,1.83
2023-02-27T05:40:23.241Z,1.47
2023-02-27T05:42:57.183Z,1.90
2023-02-27T05:45:31.471Z,1.67
2023-02-27T05:48:04.443Z,1.60
2023-02-27T05:50:35.818Z,1.70
2023-02-27T05:53:07.983Z,1.60
2023-02-27T05:55:39.770Z,1.43
2023-02-27T05:58:14.215Z,1.73
2023-02-27T06:00:47.380Z,1.80
2023-02-27T06:03:15.633Z,1.80
2023-02-27T06:05:45.961Z,1.67
2023-02-27T06:08:16.673Z,2.10
2023-02-27T06:10:44.598Z,1.80
2023-02-27T06:13:12.625Z,1.83
2023-02-27T06:15:40.617Z,1.80
2023-02-27T06:18:10.856Z,1.80
2023-02-27T06:20:38.960Z,1.90
2023-02-27T06:23:08.000Z,1.80
2023-02-27T06:25:36.330Z,1.80
2023-02-27T06:28:05.120Z,1.73
2023-02-27T06:30:33.282Z,2.23
2023-02-27T06:33:01.256Z,2.07
2023-02-27T06:35:31.218Z,2.30
2023-02-27T06:37:59.514Z,2.07
2023-02-27T06:40:27.620Z,2.10
2023-02-27T06:42:55.593Z,2.37
2023-02-27T06:45:24.551Z,2.67
2023-02-27T06:47:52.746Z,2.50
2023-02-27T06:50:21.135Z,2.33
2023-02-27T06:52:50.737Z,2.50
2023-02-27T06:55:22.653Z,2.63
2023-02-27T06:57:51.041Z,2.73
2023-02-27T07:00:20.276Z,2.80
2023-02-27T07:02:48.526Z,2.90
2023-02-27T07:05:16.950Z,2.73
2023-02-27T07:07:45.138Z,2.57
2023-02-27T07:10:15.536Z,2.73
2023-02-27T07:12:44.201Z,3.13
2023-02-27T07:15:13.164Z,3.07
2023-02-27T07:17:41.256Z,3.50
2023-02-27T07:20:11.802Z,3.80
2023-02-27T07:22:40.836Z,4.37
2023-02-27T07:25:10.455Z,3.83
2023-02-27T07:27:40.013Z,4.17
2023-02-27T07:30:09.419Z,3.30
2023-02-27T07:32:37.465Z,3.87
2023-02-27T07:35:06.069Z,3.73
2023-02-27T07:37:34.053Z,3.60
2023-02-27T07:40:02.093Z,4.60
2023-02-27T07:42:30.371Z,3.90
2023-02-27T07:45:00.360Z,4.50
2023-02-27T07:47:30.295Z,4.93
2023-02-27T07:49:58.482Z,5.03
2023-02-27T07:52:26.912Z,4.03
2023-02-27T07:54:54.931Z,4.37
2023-02-27T07:57:22.936Z,4.80
2023-02-27T07:59:50.974Z,4.17
2023-02-27T08:02:20.629Z,4.30
2023-02-27T08:04:48.679Z,4.80
2023-02-27T08:07:16.750Z,4.70
2023-02-27T08:09:44.729Z,4.33
2023-02-27T08:12:13.200Z,5.30
2023-02-27T08:14:41.383Z,4.80
2023-02-27T08:17:09.470Z,4.00
2023-02-27T08:19:39.530Z,4.13
2023-02-27T08:22:08.139Z,5.27
2023-02-27T08:24:36.611Z,4.10
2023-02-27T08:27:05.359Z,4.23
2023-02-27T08:29:33.682Z,6.87
2023-02-27T08:32:02.313Z,6.27
2023-02-27T08:34:31.359Z,5.40
2023-02-27T08:37:01.609Z,5.77
2023-02-27T08:39:30.681Z,4.50
2023-02-27T08:41:58.866Z,4.07
2023-02-27T08:44:26.915Z,4.83
2023-02-27T08:46:55.015Z,3.73
2023-02-27T08:49:25.290Z,3.60
2023-02-27T08:51:54.049Z,3.53
2023-02-27T08:54:23.685Z,3.20
2023-02-27T08:56:52.068Z,2.60
2023-02-27T08:59:20.147Z,2.50
2023-02-27T09:01:48.372Z,2.60
2023-02-27T09:04:17.276Z,3.13
2023-02-27T09:06:45.353Z,2.73
2023-02-27T09:09:13.577Z,3.00
2023-02-27T09:11:43.408Z,2.83
2023-02-27T09:14:11.505Z,2.50
2023-02-27T09:16:39.853Z,2.40
2023-02-27T09:19:08.770Z,2.80
2023-02-27T09:21:37.664Z,2.40
2023-02-27T09:24:18.766Z,2.57
2023-02-27T09:26:49.976Z,2.43
2023-02-27T09:29:18.144Z,2.50
2023-02-27T09:31:46.649Z,3.03
2023-02-27T09:34:14.786Z,2.70
2023-02-27T09:36:42.995Z,2.73
2023-02-27T09:39:11.164Z,2.40
2023-02-27T09:41:49.501Z,2.40
2023-02-27T09:44:43.430Z,2.80
2023-02-27T09:47:16.329Z,2.40
2023-02-27T09:49:57.327Z,2.63
2023-02-27T09:52:25.399Z,2.10
2023-02-27T09:54:55.308Z,2.20
2023-02-27T09:57:36.649Z,2.13
2023-02-27T10:00:16.926Z,2.03
2023-02-27T10:02:57.699Z,2.43
2023-02-27T10:05:37.109Z,2.50
2023-02-27T10:08:14.154Z,2.80
2023-02-27T10:10:47.280Z,2.90
2023-02-27T10:13:52.044Z,2.87
2023-02-27T10:16:23.712Z,2.67
2023-02-27T10:18:58.309Z,2.40
2023-02-27T10:21:32.782Z,2.90
2023-02-27T10:24:08.200Z,2.53
2023-02-27T10:26:40.870Z,2.63
2023-02-27T10:29:20.283Z,2.63
2023-02-27T10:31:57.981Z,2.57
2023-02-27T10:34:28.716Z,2.43
2023-02-27T10:36:57.158Z,2.87
2023-02-27T10:39:26.257Z,2.87
2023-02-27T10:41:54.563Z,2.30
2023-02-27T10:44:24.585Z,2.97
2023-02-27T10:46:54.101Z,2.50
2023-02-27T10:49:23.630Z,2.67
2023-02-27T10:52:08.649Z,2.13
2023-02-27T10:54:37.549Z,2.70
2023-02-27T10:57:19.774Z,2.30
2023-02-27T10:59:54.436Z,2.47
2023-02-27T11:02:27.376Z,2.27
2023-02-27T11:04:57.925Z,2.47
2023-02-27T11:07:36.246Z,2.30
2023-02-27T11:10:18.250Z,2.20
2023-02-27T11:13:00.195Z,1.93
2023-02-27T11:15:30.034Z,1.97
2023-02-27T11:18:20.844Z,1.80
2023-02-27T11:20:50.878Z,1.70
2023-02-27T11:23:21.950Z,1.97
2023-02-27T11:25:51.202Z,1.60
2023-02-27T11:28:31.613Z,1.60
2023-02-27T11:31:03.413Z,1.60
2023-02-27T11:33:38.565Z,1.77
2023-02-27T11:36:07.888Z,1.40
2023-02-27T11:38:36.344Z,1.37
2023-02-27T11:41:07.111Z,1.60
2023-02-27T11:43:40.250Z,1.57
2023-02-27T11:46:42.307Z,2.10
2023-02-27T11:49:20.214Z,1.83
2023-02-27T11:51:57.356Z,2.10
2023-02-27T11:54:37.010Z,2.30
2023-02-27T11:57:13.051Z,2.60
2023-02-27T11:59:47.517Z,2.90
2023-02-27T12:02:24.245Z,2.37
2023-02-27T12:04:58.568Z,2.10
2023-02-27T12:07:30.894Z,1.93
2023-02-27T12:10:04.757Z,2.07
2023-02-27T12:12:38.762Z,2.10
2023-02-27T12:15:23.333Z,2.40
2023-02-27T12:18:02.093Z,2.70
2023-02-27T12:20:37.711Z,1.57
2023-02-27T12:23:16.651Z,1.63
2023-02-27T12:25:50.972Z,1.80
2023-02-27T12:28:29.424Z,2.43
2023-02-27T12:31:10.042Z,2.03
2023-02-27T12:33:46.618Z,3.10
2023-02-27T12:36:16.778Z,1.87
2023-02-27T12:38:44.854Z,1.50
2023-02-27T12:41:37.915Z,1.70
2023-02-27T12:44:24.842Z,1.63
2023-02-27T12:46:59.754Z,2.03
2023-02-27T12:49:40.247Z,1.50
2023-02-27T12:52:23.461Z,1.60
2023-02-27T12:55:02.790Z,1.27
2023-02-27T12:57:44.611Z,1.20
2023-02-27T13:00:16.725Z,1.70
2023-02-27T13:02:52.062Z,1.80
2023-02-27T13:05:41.373Z,2.17
2023-02-27T13:08:20.333Z,2.87
2023-02-27T13:10:53.386Z,4.10
2023-02-27T13:13:27.644Z,3.73
2023-02-27T13:16:00.818Z,3.80
2023-02-27T13:18:42.064Z,3.07
2023-02-27T13:21:14.916Z,3.53
2023-02-27T13:24:03.512Z,4.20
2023-02-27T13:26:35.817Z,3.30
2023-02-27T13:29:05.320Z,2.60
2023-02-27T13:31:43.372Z,2.77
2023-02-27T13:34:21.637Z,2.10
2023-02-27T13:36:54.242Z,1.90
2023-02-27T13:39:56.888Z,1.90
2023-02-27T13:42:54.220Z,2.00
2023-02-27T13:45:48.791Z,1.90
2023-02-27T13:48:48.379Z,2.47
2023-02-27T13:51:56.853Z,2.07
2023-02-27T13:54:31.610Z,2.03
2023-02-27T13:57:21.398Z,1.27
2023-02-27T14:00:08.592Z,1.43
2023-02-27T14:02:57.682Z,1.30
2023-02-27T14:05:35.913Z,1.50
2023-02-27T14:08:10.877Z,1.33
2023-02-27T14:10:41.625Z,2.00
2023-02-27T14:13:44.501Z,1.70
2023-02-27T14:16:34.723Z,1.87
2023-02-27T14:19:05.681Z,1.70
2023-02-27T14:22:00.488Z,1.80
2023-02-27T14:24:44.809Z,1.57
2023-02-27T14:27:23.927Z,2.00
2023-02-27T14:29:55.723Z,1.97
2023-02-27T14:32:27.979Z,2.03
2023-02-27T14:34:56.803Z,1.90
2023-02-27T14:37:27.037Z,1.70
2023-02-27T14:39:57.249Z,2.03
2023-02-27T14:42:46.040Z,1.87
2023-02-27T14:45:18.909Z,2.03
2023-02-27T14:47:50.137Z,2.30
2023-02-27T14:50:49.861Z,2.33
2023-02-27T14:53:39.127Z,2.10
2023-02-27T14:56:10.038Z,1.80
2023-02-27T14:58:38.306Z,2.20
2023-02-27T15:01:09.130Z,2.10
2023-02-27T15:03:42.295Z,1.80
2023-02-27T15:06:18.578Z,1.40
2023-02-27T15:08:53.020Z,1.90
2023-02-27T15:11:24.296Z,1.80
2023-02-27T15:13:58.901Z,3.57
2023-02-27T15:16:35.382Z,2.40
2023-02-27T15:19:14.755Z,2.03
2023-02-27T15:21:45.079Z,2.37
2023-02-27T15:24:24.738Z,1.67
2023-02-27T15:26:57.269Z,2.20
2023-02-27T15:29:30.545Z,2.83
2023-02-27T15:31:58.759Z,2.43
2023-02-27T15:34:30.101Z,2.20
2023-02-27T15:37:00.012Z,3.63
2023-02-27T15:39:30.030Z,2.40
2023-02-27T15:42:02.712Z,2.47
2023-02-27T15:44:35.066Z,2.57
2023-02-27T15:47:03.776Z,2.93
2023-02-27T15:49:33.362Z,2.43
2023-02-27T15:52:03.223Z,2.70
2023-02-27T15:54:35.723Z,3.10
2023-02-27T15:57:07.587Z,2.77
2023-02-27T15:59:42.306Z,2.80
2023-02-27T16:02:19.343Z,2.50
2023-02-27T16:04:49.632Z,3.50
2023-02-27T16:07:21.858Z,3.17
2023-02-27T16:09:53.066Z,3.33
2023-02-27T16:12:33.371Z,2.70
2023-02-27T16:15:37.549Z,2.67
2023-02-27T16:18:25.351Z,3.13
2023-02-27T16:21:09.628Z,2.70
2023-02-27T16:23:41.985Z,3.20
2023-02-27T16:26:38.234Z,3.13
2023-02-27T16:29:17.782Z,3.03
2023-02-27T16:31:49.924Z,2.50
2023-02-27T16:34:35.578Z,3.10
2023-02-27T16:37:21.752Z,4.10
2023-02-27T16:39:51.266Z,3.13
2023-02-27T16:42:19.768Z,3.40
2023-02-27T16:44:48.115Z,3.40
2023-02-27T16:47:16.175Z,3.43
2023-02-27T16:49:45.902Z,3.97
2023-02-27T16:52:14.186Z,3.53
2023-02-27T16:54:43.866Z,3.67
2023-02-27T16:57:14.059Z,3.70
2023-02-27T16:59:42.522Z,3.20
2023-02-27T17:02:14.942Z,3.57
2023-02-27T17:04:44.512Z,4.10
2023-02-27T17:07:16.948Z,3.90
2023-02-27T17:09:48.071Z,3.97
2023-02-27T17:12:17.465Z,3.60
2023-02-27T17:14:45.926Z,3.13
2023-02-27T17:17:14.430Z,3.33
2023-02-27T17:19:44.473Z,3.10
2023-02-27T17:22:12.803Z,3.27
2023-02-27T17:24:42.225Z,3.73
2023-02-27T17:27:11.999Z,4.13
2023-02-27T17:29:41.029Z,3.77
2023-02-27T17:32:10.973Z,4.10
2023-02-27T17:34:43.671Z,3.40
2023-02-27T17:37:12.761Z,3.60
2023-02-27T17:39:41.314Z,3.73
2023-02-27T17:42:18.773Z,3.50
2023-02-27T17:44:50.469Z,2.70
2023-02-27T17:47:20.458Z,3.20
2023-02-27T17:49:53.721Z,3.73
2023-02-27T17:52:24.186Z,3.60
2023-02-27T17:54:54.802Z,3.40
2023-02-27T17:57:30.079Z,3.40
2023-02-27T17:59:58.359Z,3.50
2023-02-27T18:02:26.970Z,3.50
2023-02-27T18:04:55.219Z,3.50
2023-02-27T18:07:23.743Z,4.37
2023-02-27T18:09:51.952Z,5.83
2023-02-27T18:12:20.176Z,6.83
2023-02-27T18:14:49.749Z,5.80
2023-02-27T18:17:18.290Z,6.33
2023-02-27T18:19:46.768Z,7.57
2023-02-27T18:22:17.898Z,6.30
2023-02-27T18:24:47.442Z,7.27
2023-02-27T18:27:15.869Z,6.87
2023-02-27T18:29:44.315Z,5.43
2023-02-27T18:32:14.075Z,5.57
2023-02-27T18:34:43.556Z,6.40
2023-02-27T18:37:11.792Z,6.13
2023-02-27T18:39:42.551Z,5.67
2023-02-27T18:42:14.420Z,4.70
2023-02-27T18:54:00.546Z,5.70
2023-02-27T18:56:33.917Z,5.93
2023-02-27T19:01:53.159Z,4.47
2023-02-27T19:10:55.779Z,3.40
2023-02-27T19:28:22.314Z,2.60
2023-02-27T19:30:55.477Z,3.20
2023-02-27T19:44:57.878Z,3.03
2023-02-27T20:56:48.603Z,4.83
2023-02-27T21:00:03.886Z,3.50
2023-02-27T21:03:00.388Z,3.30
2023-02-27T21:26:41.499Z,4.67
2023-02-27T21:46:51.081Z,3.20
2023-02-27T21:52:47.903Z,2.93
2023-02-27T22:01:56.711Z,1.70
2023-02-27T22:04:29.463Z,2.00
2023-02-27T22:06:59.290Z,1.90
2023-02-27T22:09:30.181Z,1.53
2023-02-27T22:12:11.475Z,1.83
2023-02-27T22:14:49.444Z,1.90
2023-02-27T22:17:21.820Z,2.00
2023-02-27T22:19:52.949Z,2.37
2023-02-27T22:22:21.035Z,1.83
2023-02-27T22:24:49.075Z,1.60
2023-02-27T22:27:17.218Z,2.90
2023-02-27T22:29:45.563Z,3.03
2023-02-27T22:32:15.555Z,2.80
2023-02-27T22:34:45.852Z,1.80
2023-02-27T22:37:16.566Z,2.13
2023-02-27T22:39:53.106Z,1.70
2023-02-27T22:42:21.904Z,1.53
2023-02-27T22:44:50.434Z,1.60
2023-02-27T22:47:19.563Z,1.77
2023-02-27T22:49:51.821Z,1.07
2023-02-27T22:52:21.035Z,1.10
2023-02-27T22:54:50.158Z,1.50
2023-02-27T22:57:18.596Z,1.37
2023-02-27T22:59:51.243Z,1.10
2023-02-27T23:02:19.558Z,1.30
2023-02-27T23:04:54.124Z,1.00
2023-02-27T23:07:22.974Z,1.23
2023-02-27T23:09:53.077Z,1.23
2023-02-27T23:12:22.198Z,1.30
2023-02-27T23:14:50.776Z,1.20
2023-02-27T23:17:19.445Z,1.10
2023-02-27T23:19:50.818Z,1.47
2023-02-27T23:22:19.096Z,1.30
2023-02-27T23:24:47.117Z,1.27
2023-02-27T23:27:25.808Z,1.20
2023-02-27T23:29:54.891Z,1.30
2023-02-27T23:32:23.159Z,1.40
2023-02-27T23:34:52.920Z,1.10
2023-02-27T23:37:20.905Z,1.27
2023-02-27T23:39:48.959Z,1.50
2023-02-27T23:42:17.196Z,1.57
2023-02-27T23:45:02.691Z,1.67
2023-02-27T23:47:45.757Z,1.63
2023-02-27T23:50:15.244Z,1.40
2023-02-27T23:52:43.305Z,1.67
2023-02-27T23:55:12.121Z,1.70
2023-02-27T23:57:40.571Z,1.40
